Nearby METAR Reports

 

KSJC - San Jose, California, USA
Distance from station: NE 14km
Updated: 07/07/2022 02:53
Overcast
Overcast
 Wind from NW
Wind: NW 13 km/h
Temperature: 17°C
Dew Point: 13°C
Humidity: 77%
Barometer: 1015.9 hPa
Clouds: Overcast
Visibility: 16 km
Cloud details: Overcast 549 m
2022/07/07 09:53 KSJC 070953Z AUTO 32007KT 10SM OVC018 17/13 A3000 RMK AO2 SLP160 T01670128
KNUQ - Moffett Nas/Mtn, California, USA
Distance from station: N 14km
Updated: 28/06/2022 04:55
NOT Current

 Wind from calm
Wind: Calm
Temperature: 15°C
Dew Point: 12°C
Humidity: 82%
Barometer: 1017.9 hPa
Visibility: 16 km
2022/06/28 11:55 KNUQ 281155Z AUTO 00000KT 10SM 15/12 A3006 RMK AO2
 
KPAO - Palo Alto, California, USA
Distance from station: NNW 23km
Updated: 06/07/2022 20:47
NOT Current
Partly cloudy
Partly cloudy
 Wind from WNW
Wind: WNW 19 km/h
Temperature: 18°C
Dew Point: 12°C
Humidity: 68%
Barometer: 1015.2 hPa
Clouds: Partly cloudy
Visibility: 16 km
Cloud details: Partly cloudy 610 m
2022/07/07 03:47 KPAO 070347Z 30010KT 10SM SCT020 18/12 A2998 RMK LAST
KRHV - San Jose/Reid, California, USA
Distance from station: ENE 19km
Updated: 06/07/2022 21:47
NOT Current
Clear
Clear
 Wind from NW
Wind: NW 17 km/h
Temperature: 17°C
Dew Point: 12°C
Humidity: 73%
Barometer: 1016.3 hPa
Clouds: Clear
Visibility: 16 km
2022/07/07 04:47 KRHV 070447Z 32009KT 10SM SKC 17/12 A3001 RMK LAST
 
KOAK - Oakland, California, USA
Distance from station: NNW 50km
Updated: 07/07/2022 02:53
Mostly cloudy
Mostly cloudy
 Wind from W
Wind: W 17 km/h
Temperature: 15°C
Dew Point: 12°C
Humidity: 82%
Barometer: 1016.3 hPa
Clouds: Mostly cloudy
Visibility: 16 km
Cloud details: Few Clouds 244 m
Mostly cloudy 366 m
2022/07/07 09:53 KOAK 070953Z 27009KT 10SM FEW008 BKN012 15/12 A3001 RMK AO2 SLP162 T01500122
KSQL - San Carlos Airpo, California, USA
Distance from station: NW 34km
Updated: 07/07/2022 03:15
Overcast
Overcast
 Wind from calm
Wind: Calm
Temperature: 15°C
Dew Point: 13°C
Humidity: 88%
Barometer: 1016.6 hPa
Clouds: Overcast
Visibility: 16 km
Cloud details: Overcast 396 m
2022/07/07 10:15 KSQL 071015Z AUTO 00000KT 10SM OVC013 15/13 A3002 RMK AO2
 
KSFO - San Francisco, California, USA
Distance from station: NW 49km
Updated: 07/07/2022 02:56
Overcast
Overcast
 Wind from W
Wind: W 20 km/h
Temperature: 16°C
Dew Point: 12°C
Humidity: 77%
Barometer: 1016.3 hPa
Clouds: Overcast
Visibility: 16 km
Cloud details: Few Clouds 244 m
Mostly cloudy 305 m
Overcast 366 m
2022/07/07 09:56 KSFO 070956Z 28011KT 10SM FEW008 BKN010 OVC012 16/12 A3001 RMK AO2 SLP161 T01560122
KE16 - San Martin, California, USA
Distance from station: ESE 43km
Updated: 07/07/2022 03:15
Overcast
Overcast
 Wind from NW
Wind: NW 11 km/h
Temperature: 17°C
Dew Point: 12°C
Humidity: 73%
Barometer: 1016.6 hPa
Clouds: Overcast
Visibility: 16 km
Cloud details: Overcast 579 m
2022/07/07 10:15 KE16 071015Z AUTO 31006KT 10SM OVC019 17/12 A3002 RMK AO2 PWINO PNO
 
KWVI - Watsonville, California, USA
Distance from station: SSE 44km
Updated: 07/07/2022 02:53
Overcast
Overcast
 Wind from calm
Wind: Calm
Temperature: 15°C
Dew Point: 13°C
Humidity: 88%
Barometer: 1016.3 hPa
Clouds: Overcast
Visibility: 16 km
Cloud details: Overcast 335 m
2022/07/07 09:53 KWVI 070953Z AUTO 00000KT 10SM OVC011 15/13 A3001 RMK AO2 SLP161 T01500128
KHAF - Half Moon Bay, California, USA
Distance from station: WNW 50km
Updated: 07/07/2022 03:15
Overcast
Overcast
 Wind from NNW
Wind: NNW 15 km/h
Temperature: 15°C
Dew Point: 14°C
Humidity: 94%
Barometer: 1016.6 hPa
Clouds: Overcast
Visibility: 16 km
Cloud details: Overcast 274 m
2022/07/07 10:15 KHAF 071015Z AUTO 34008KT 10SM OVC009 15/14 A3002 RMK AO2
 
KHWD - Hayward, California, USA
Distance from station: N 44km
Updated: 07/07/2022 02:54
Overcast
Overcast
 Wind from W
Wind: W 11 km/h
Temperature: 16°C
Dew Point: 13°C
Humidity: 83%
Barometer: 1015.9 hPa
Clouds: Overcast
Visibility: 16 km
Cloud details: Overcast 366 m
2022/07/07 09:54 KHWD 070954Z AUTO 27006KT 10SM OVC012 16/13 A3000 RMK AO2 SLP168 T01560128
KLVK - Livermore, California, USA
Distance from station: NNE 51km
Updated: 07/07/2022 02:53
Overcast
Overcast
 Wind from W
Wind: W 11 km/h
Temperature: 15°C
Dew Point: 12°C
Humidity: 82%
Barometer: 1015.6 hPa
Clouds: Overcast
Visibility: 16 km
Cloud details: Overcast 396 m
2022/07/07 09:53 KLVK 070953Z AUTO 28006KT 10SM OVC013 15/12 A2999 RMK AO2 SLP153 T01500122